Orono, Maine
Current Conditions -  °F | °C
As of 5:53 PM on Thursday 23 Oct 2014 (Local Time) from KBGR Reporting Station
Light Rain Light Rain  
Wind Chill: 50°   Ceiling: 900
Heat Index: 50°   Visibility: 2.5mi
Dew Point: 48°   Wind: 15mph
Humidity: 93%   Direction: 30°NNE
Pressure: 29.81"   Gusts: 24mph
Location:  44.88°N, 68.67°W
Report Text: KBGR 232153Z 03013G21KT 2 1/2SM -RA BR BKN009 OVC012 10/09 A2981 RMK AO2 SLP095 P0009 T01000089
Loading
Personal Weather Stations






























Interactive Weather Map
Tropical Storm Tracking
New forecast layout! Learn more

10-Day Weather Forecast

Advertisements
Track Severe Weather on mobile